sensor_id;sensor_type;location;lat;lon;timestamp;P1;durP1;ratioP1;P2;durP2;ratioP2
28022;SDS011;67403;50.104;8.758;2024-03-02T00:02:02;19.95;;;10.45;;
28022;SDS011;67403;50.104;8.758;2024-03-02T00:04:30;20.13;;;9.63;;
28022;SDS011;67403;50.104;8.758;2024-03-02T00:06:58;18.17;;;10.05;;
28022;SDS011;67403;50.104;8.758;2024-03-02T00:09:25;16.25;;;10.13;;
28022;SDS011;67403;50.104;8.758;2024-03-02T00:11:52;17.10;;;10.15;;
28022;SDS011;67403;50.104;8.758;2024-03-02T00:14:19;18.23;;;10.48;;
28022;SDS011;67403;50.104;8.758;2024-03-02T00:16:48;19.50;;;10.32;;
28022;SDS011;67403;50.104;8.758;2024-03-02T00:19:15;18.52;;;10.60;;
28022;SDS011;67403;50.104;8.758;2024-03-02T00:21:43;17.08;;;9.60;;
28022;SDS011;67403;50.104;8.758;2024-03-02T00:24:17;20.30;;;10.70;;
28022;SDS011;67403;50.104;8.758;2024-03-02T00:26:45;16.83;;;10.82;;
28022;SDS011;67403;50.104;8.758;2024-03-02T00:29:13;18.48;;;10.82;;
28022;SDS011;67403;50.104;8.758;2024-03-02T00:31:44;20.90;;;10.73;;
28022;SDS011;67403;50.104;8.758;2024-03-02T00:34:13;21.13;;;11.57;;
28022;SDS011;67403;50.104;8.758;2024-03-02T00:36:41;24.58;;;10.90;;
28022;SDS011;67403;50.104;8.758;2024-03-02T00:39:09;22.73;;;11.10;;
28022;SDS011;67403;50.104;8.758;2024-03-02T00:41:40;22.20;;;12.00;;
28022;SDS011;67403;50.104;8.758;2024-03-02T00:44:09;22.15;;;12.02;;
28022;SDS011;67403;50.104;8.758;2024-03-02T00:46:38;24.67;;;11.67;;
28022;SDS011;67403;50.104;8.758;2024-03-02T00:49:17;24.65;;;11.38;;
28022;SDS011;67403;50.104;8.758;2024-03-02T00:51:48;21.38;;;11.90;;
28022;SDS011;67403;50.104;8.758;2024-03-02T00:54:15;23.00;;;11.95;;
28022;SDS011;67403;50.104;8.758;2024-03-02T00:56:46;23.98;;;12.57;;
28022;SDS011;67403;50.104;8.758;2024-03-02T00:59:14;25.70;;;13.15;;
28022;SDS011;67403;50.104;8.758;2024-03-02T01:01:41;25.25;;;12.88;;
28022;SDS011;67403;50.104;8.758;2024-03-02T01:04:08;23.40;;;13.20;;
28022;SDS011;67403;50.104;8.758;2024-03-02T01:06:36;25.10;;;13.70;;
28022;SDS011;67403;50.104;8.758;2024-03-02T01:09:04;23.02;;;13.07;;
28022;SDS011;67403;50.104;8.758;2024-03-02T01:11:32;25.42;;;13.43;;
28022;SDS011;67403;50.104;8.758;2024-03-02T01:13:59;24.35;;;13.75;;
28022;SDS011;67403;50.104;8.758;2024-03-02T01:16:26;25.52;;;12.65;;
28022;SDS011;67403;50.104;8.758;2024-03-02T01:18:54;28.00;;;14.02;;
28022;SDS011;67403;50.104;8.758;2024-03-02T01:21:21;22.90;;;12.45;;
28022;SDS011;67403;50.104;8.758;2024-03-02T01:23:48;21.10;;;12.43;;
28022;SDS011;67403;50.104;8.758;2024-03-02T01:26:17;27.23;;;13.73;;
28022;SDS011;67403;50.104;8.758;2024-03-02T01:28:44;27.48;;;12.30;;
28022;SDS011;67403;50.104;8.758;2024-03-02T01:31:11;25.10;;;13.60;;
28022;SDS011;67403;50.104;8.758;2024-03-02T01:33:39;29.90;;;14.02;;
28022;SDS011;67403;50.104;8.758;2024-03-02T01:36:06;22.45;;;12.02;;
28022;SDS011;67403;50.104;8.758;2024-03-02T01:38:33;27.70;;;14.40;;
28022;SDS011;67403;50.104;8.758;2024-03-02T01:41:01;26.75;;;13.77;;
28022;SDS011;67403;50.104;8.758;2024-03-02T01:43:30;25.20;;;13.80;;
28022;SDS011;67403;50.104;8.758;2024-03-02T01:45:57;23.20;;;13.98;;
28022;SDS011;67403;50.104;8.758;2024-03-02T01:48:24;27.05;;;14.20;;
28022;SDS011;67403;50.104;8.758;2024-03-02T01:50:52;25.10;;;13.35;;
28022;SDS011;67403;50.104;8.758;2024-03-02T01:53:19;29.38;;;14.57;;
28022;SDS011;67403;50.104;8.758;2024-03-02T01:55:47;26.48;;;13.93;;
28022;SDS011;67403;50.104;8.758;2024-03-02T01:58:14;24.27;;;14.63;;
28022;SDS011;67403;50.104;8.758;2024-03-02T02:00:42;24.67;;;13.55;;
28022;SDS011;67403;50.104;8.758;2024-03-02T02:03:10;25.38;;;14.23;;
28022;SDS011;67403;50.104;8.758;2024-03-02T02:05:37;23.83;;;14.02;;
28022;SDS011;67403;50.104;8.758;2024-03-02T02:08:05;23.30;;;14.73;;
28022;SDS011;67403;50.104;8.758;2024-03-02T02:10:34;24.05;;;13.93;;
28022;SDS011;67403;50.104;8.758;2024-03-02T02:13:01;29.92;;;14.65;;
28022;SDS011;67403;50.104;8.758;2024-03-02T02:15:29;31.75;;;15.77;;
28022;SDS011;67403;50.104;8.758;2024-03-02T02:17:58;28.85;;;14.98;;
28022;SDS011;67403;50.104;8.758;2024-03-02T02:20:27;31.42;;;17.13;;
28022;SDS011;67403;50.104;8.758;2024-03-02T02:22:59;31.35;;;15.80;;
28022;SDS011;67403;50.104;8.758;2024-03-02T02:25:26;33.08;;;16.25;;
28022;SDS011;67403;50.104;8.758;2024-03-02T02:27:54;30.45;;;16.33;;
28022;SDS011;67403;50.104;8.758;2024-03-02T02:30:23;31.17;;;16.42;;
28022;SDS011;67403;50.104;8.758;2024-03-02T02:32:50;31.77;;;17.30;;
28022;SDS011;67403;50.104;8.758;2024-03-02T02:35:18;32.85;;;16.38;;
28022;SDS011;67403;50.104;8.758;2024-03-02T02:37:45;33.83;;;16.63;;
28022;SDS011;67403;50.104;8.758;2024-03-02T02:40:14;29.45;;;16.48;;
28022;SDS011;67403;50.104;8.758;2024-03-02T02:42:44;34.35;;;17.40;;
28022;SDS011;67403;50.104;8.758;2024-03-02T02:45:11;30.40;;;15.63;;
28022;SDS011;67403;50.104;8.758;2024-03-02T02:47:39;31.33;;;15.82;;
28022;SDS011;67403;50.104;8.758;2024-03-02T02:50:07;36.75;;;17.80;;
28022;SDS011;67403;50.104;8.758;2024-03-02T02:52:35;30.55;;;15.93;;
28022;SDS011;67403;50.104;8.758;2024-03-02T02:55:05;29.45;;;16.15;;
28022;SDS011;67403;50.104;8.758;2024-03-02T02:57:34;37.03;;;16.45;;
28022;SDS011;67403;50.104;8.758;2024-03-02T03:00:03;31.17;;;16.15;;
28022;SDS011;67403;50.104;8.758;2024-03-02T03:02:36;34.80;;;17.80;;
28022;SDS011;67403;50.104;8.758;2024-03-02T03:05:03;29.92;;;16.40;;
28022;SDS011;67403;50.104;8.758;2024-03-02T03:07:31;36.72;;;17.45;;
28022;SDS011;67403;50.104;8.758;2024-03-02T03:09:59;34.75;;;17.65;;
28022;SDS011;67403;50.104;8.758;2024-03-02T03:12:26;36.47;;;17.42;;
28022;SDS011;67403;50.104;8.758;2024-03-02T03:14:55;36.08;;;17.80;;
28022;SDS011;67403;50.104;8.758;2024-03-02T03:17:22;35.50;;;17.35;;
28022;SDS011;67403;50.104;8.758;2024-03-02T03:19:49;34.80;;;17.92;;
28022;SDS011;67403;50.104;8.758;2024-03-02T03:22:17;33.38;;;16.55;;
28022;SDS011;67403;50.104;8.758;2024-03-02T03:24:44;27.30;;;16.58;;
28022;SDS011;67403;50.104;8.758;2024-03-02T03:27:11;31.38;;;16.73;;
28022;SDS011;67403;50.104;8.758;2024-03-02T03:29:39;33.63;;;15.93;;
28022;SDS011;67403;50.104;8.758;2024-03-02T03:32:08;31.95;;;17.48;;
28022;SDS011;67403;50.104;8.758;2024-03-02T03:34:35;31.98;;;17.23;;
28022;SDS011;67403;50.104;8.758;2024-03-02T03:37:02;31.25;;;16.35;;
28022;SDS011;67403;50.104;8.758;2024-03-02T03:39:30;30.55;;;16.60;;
28022;SDS011;67403;50.104;8.758;2024-03-02T03:41:57;32.75;;;16.35;;
28022;SDS011;67403;50.104;8.758;2024-03-02T03:44:24;32.67;;;16.13;;
28022;SDS011;67403;50.104;8.758;2024-03-02T03:46:51;31.02;;;16.05;;
28022;SDS011;67403;50.104;8.758;2024-03-02T03:49:20;30.02;;;16.23;;
28022;SDS011;67403;50.104;8.758;2024-03-02T03:51:47;32.47;;;16.58;;
28022;SDS011;67403;50.104;8.758;2024-03-02T03:54:14;33.67;;;16.30;;
28022;SDS011;67403;50.104;8.758;2024-03-02T03:56:42;29.05;;;16.95;;
28022;SDS011;67403;50.104;8.758;2024-03-02T03:59:09;32.55;;;16.35;;
28022;SDS011;67403;50.104;8.758;2024-03-02T04:01:37;34.92;;;17.40;;
28022;SDS011;67403;50.104;8.758;2024-03-02T04:04:04;33.55;;;16.42;;
28022;SDS011;67403;50.104;8.758;2024-03-02T04:06:34;38.00;;;18.58;;
28022;SDS011;67403;50.104;8.758;2024-03-02T04:09:01;32.72;;;16.50;;
28022;SDS011;67403;50.104;8.758;2024-03-02T04:11:29;37.40;;;17.05;;
28022;SDS011;67403;50.104;8.758;2024-03-02T04:13:56;32.03;;;15.75;;
28022;SDS011;67403;50.104;8.758;2024-03-02T04:16:24;36.03;;;17.58;;
28022;SDS011;67403;50.104;8.758;2024-03-02T04:18:51;29.67;;;15.93;;
28022;SDS011;67403;50.104;8.758;2024-03-02T04:21:19;34.22;;;16.23;;
28022;SDS011;67403;50.104;8.758;2024-03-02T04:23:48;28.63;;;16.42;;
28022;SDS011;67403;50.104;8.758;2024-03-02T04:26:15;33.78;;;16.67;;
28022;SDS011;67403;50.104;8.758;2024-03-02T04:28:47;28.73;;;16.00;;
28022;SDS011;67403;50.104;8.758;2024-03-02T04:31:14;34.63;;;17.30;;
28022;SDS011;67403;50.104;8.758;2024-03-02T04:33:42;32.80;;;16.75;;
28022;SDS011;67403;50.104;8.758;2024-03-02T04:36:09;35.63;;;16.30;;
28022;SDS011;67403;50.104;8.758;2024-03-02T04:38:36;33.78;;;17.15;;
28022;SDS011;67403;50.104;8.758;2024-03-02T04:41:05;32.00;;;16.75;;
28022;SDS011;67403;50.104;8.758;2024-03-02T04:43:33;37.75;;;16.88;;
28022;SDS011;67403;50.104;8.758;2024-03-02T04:46:00;34.50;;;16.73;;
28022;SDS011;67403;50.104;8.758;2024-03-02T04:48:28;33.50;;;17.35;;
28022;SDS011;67403;50.104;8.758;2024-03-02T04:50:55;37.00;;;16.52;;
28022;SDS011;67403;50.104;8.758;2024-03-02T04:53:22;33.42;;;15.73;;
28022;SDS011;67403;50.104;8.758;2024-03-02T04:55:50;34.15;;;17.35;;
28022;SDS011;67403;50.104;8.758;2024-03-02T04:58:36;40.13;;;18.05;;
28022;SDS011;67403;50.104;8.758;2024-03-02T05:01:03;35.17;;;16.88;;
28022;SDS011;67403;50.104;8.758;2024-03-02T05:03:31;35.03;;;16.52;;
28022;SDS011;67403;50.104;8.758;2024-03-02T05:06:00;37.03;;;18.02;;
28022;SDS011;67403;50.104;8.758;2024-03-02T05:08:27;35.20;;;16.85;;
28022;SDS011;67403;50.104;8.758;2024-03-02T05:10:55;35.63;;;16.95;;
28022;SDS011;67403;50.104;8.758;2024-03-02T05:13:44;33.25;;;17.33;;
28022;SDS011;67403;50.104;8.758;2024-03-02T05:16:11;36.63;;;16.73;;
28022;SDS011;67403;50.104;8.758;2024-03-02T05:18:39;31.50;;;17.08;;
28022;SDS011;67403;50.104;8.758;2024-03-02T05:21:06;39.85;;;17.90;;
28022;SDS011;67403;50.104;8.758;2024-03-02T05:23:33;36.80;;;17.38;;
28022;SDS011;67403;50.104;8.758;2024-03-02T05:26:01;38.80;;;18.27;;
28022;SDS011;67403;50.104;8.758;2024-03-02T05:28:28;38.35;;;18.38;;
28022;SDS011;67403;50.104;8.758;2024-03-02T05:30:56;38.97;;;18.35;;
28022;SDS011;67403;50.104;8.758;2024-03-02T05:33:24;39.15;;;18.67;;
28022;SDS011;67403;50.104;8.758;2024-03-02T05:35:51;40.83;;;19.90;;
28022;SDS011;67403;50.104;8.758;2024-03-02T05:38:19;45.70;;;21.17;;
28022;SDS011;67403;50.104;8.758;2024-03-02T05:40:47;45.38;;;20.55;;
28022;SDS011;67403;50.104;8.758;2024-03-02T05:43:14;43.47;;;19.52;;
28022;SDS011;67403;50.104;8.758;2024-03-02T05:45:42;39.80;;;19.88;;
28022;SDS011;67403;50.104;8.758;2024-03-02T05:48:10;45.38;;;19.55;;
28022;SDS011;67403;50.104;8.758;2024-03-02T05:50:38;40.92;;;19.85;;
28022;SDS011;67403;50.104;8.758;2024-03-02T05:53:05;45.33;;;20.58;;
28022;SDS011;67403;50.104;8.758;2024-03-02T05:55:32;43.35;;;19.48;;
28022;SDS011;67403;50.104;8.758;2024-03-02T05:58:00;36.58;;;19.83;;
28022;SDS011;67403;50.104;8.758;2024-03-02T06:00:42;43.17;;;19.75;;
28022;SDS011;67403;50.104;8.758;2024-03-02T06:03:11;42.53;;;20.73;;
28022;SDS011;67403;50.104;8.758;2024-03-02T06:05:38;45.08;;;19.83;;
28022;SDS011;67403;50.104;8.758;2024-03-02T06:08:06;38.75;;;19.25;;
28022;SDS011;67403;50.104;8.758;2024-03-02T06:10:33;40.00;;;19.40;;
28022;SDS011;67403;50.104;8.758;2024-03-02T06:13:00;39.35;;;18.88;;
28022;SDS011;67403;50.104;8.758;2024-03-02T06:15:28;38.05;;;18.90;;
28022;SDS011;67403;50.104;8.758;2024-03-02T06:17:55;43.33;;;20.52;;
28022;SDS011;67403;50.104;8.758;2024-03-02T06:20:24;40.67;;;21.20;;
28022;SDS011;67403;50.104;8.758;2024-03-02T06:22:52;42.90;;;21.13;;
28022;SDS011;67403;50.104;8.758;2024-03-02T06:25:19;38.80;;;20.20;;
28022;SDS011;67403;50.104;8.758;2024-03-02T06:27:46;39.00;;;18.58;;
28022;SDS011;67403;50.104;8.758;2024-03-02T06:30:14;41.63;;;20.05;;
28022;SDS011;67403;50.104;8.758;2024-03-02T06:32:41;39.33;;;19.27;;
28022;SDS011;67403;50.104;8.758;2024-03-02T06:35:08;38.20;;;18.65;;
28022;SDS011;67403;50.104;8.758;2024-03-02T06:37:39;40.13;;;19.27;;
28022;SDS011;67403;50.104;8.758;2024-03-02T06:40:06;39.50;;;18.42;;
28022;SDS011;67403;50.104;8.758;2024-03-02T06:42:34;40.42;;;19.20;;
28022;SDS011;67403;50.104;8.758;2024-03-02T06:45:01;44.97;;;20.60;;
28022;SDS011;67403;50.104;8.758;2024-03-02T06:47:29;40.78;;;20.83;;
28022;SDS011;67403;50.104;8.758;2024-03-02T06:49:56;39.72;;;20.42;;
28022;SDS011;67403;50.104;8.758;2024-03-02T06:52:24;45.78;;;20.30;;
28022;SDS011;67403;50.104;8.758;2024-03-02T06:54:53;40.47;;;18.75;;
28022;SDS011;67403;50.104;8.758;2024-03-02T06:57:20;37.85;;;19.38;;
28022;SDS011;67403;50.104;8.758;2024-03-02T06:59:49;41.92;;;20.85;;
28022;SDS011;67403;50.104;8.758;2024-03-02T07:02:19;43.40;;;19.63;;
28022;SDS011;67403;50.104;8.758;2024-03-02T07:04:48;44.83;;;19.25;;
28022;SDS011;67403;50.104;8.758;2024-03-02T07:07:16;37.92;;;19.33;;
28022;SDS011;67403;50.104;8.758;2024-03-02T07:09:43;35.90;;;17.98;;
28022;SDS011;67403;50.104;8.758;2024-03-02T07:12:12;34.67;;;17.02;;
28022;SDS011;67403;50.104;8.758;2024-03-02T07:14:39;33.85;;;17.55;;
28022;SDS011;67403;50.104;8.758;2024-03-02T07:17:36;34.75;;;17.67;;
28022;SDS011;67403;50.104;8.758;2024-03-02T07:20:04;38.28;;;18.08;;
28022;SDS011;67403;50.104;8.758;2024-03-02T07:22:32;36.97;;;17.20;;
28022;SDS011;67403;50.104;8.758;2024-03-02T07:24:59;34.85;;;16.98;;
28022;SDS011;67403;50.104;8.758;2024-03-02T07:27:29;36.72;;;17.73;;
28022;SDS011;67403;50.104;8.758;2024-03-02T07:29:59;37.70;;;17.25;;
28022;SDS011;67403;50.104;8.758;2024-03-02T07:32:26;36.20;;;16.75;;
28022;SDS011;67403;50.104;8.758;2024-03-02T07:34:53;35.33;;;18.65;;
28022;SDS011;67403;50.104;8.758;2024-03-02T07:37:21;31.60;;;16.67;;
28022;SDS011;67403;50.104;8.758;2024-03-02T07:39:48;36.80;;;16.73;;
28022;SDS011;67403;50.104;8.758;2024-03-02T07:42:15;34.08;;;16.90;;
28022;SDS011;67403;50.104;8.758;2024-03-02T07:44:44;33.15;;;16.55;;
28022;SDS011;67403;50.104;8.758;2024-03-02T07:47:12;30.35;;;15.43;;
28022;SDS011;67403;50.104;8.758;2024-03-02T07:49:39;31.75;;;16.33;;
28022;SDS011;67403;50.104;8.758;2024-03-02T07:52:07;28.85;;;15.57;;
28022;SDS011;67403;50.104;8.758;2024-03-02T07:54:34;31.65;;;15.85;;
28022;SDS011;67403;50.104;8.758;2024-03-02T07:57:01;30.05;;;15.15;;
28022;SDS011;67403;50.104;8.758;2024-03-02T07:59:29;34.78;;;17.40;;
28022;SDS011;67403;50.104;8.758;2024-03-02T08:01:57;32.72;;;16.38;;
28022;SDS011;67403;50.104;8.758;2024-03-02T08:04:26;27.77;;;14.85;;
28022;SDS011;67403;50.104;8.758;2024-03-02T08:06:53;34.50;;;15.85;;
28022;SDS011;67403;50.104;8.758;2024-03-02T08:09:21;28.77;;;15.40;;
28022;SDS011;67403;50.104;8.758;2024-03-02T08:11:48;29.08;;;15.27;;
28022;SDS011;67403;50.104;8.758;2024-03-02T08:14:15;28.38;;;15.20;;
28022;SDS011;67403;50.104;8.758;2024-03-02T08:16:42;24.55;;;13.80;;
28022;SDS011;67403;50.104;8.758;2024-03-02T08:19:11;27.75;;;14.73;;
28022;SDS011;67403;50.104;8.758;2024-03-02T08:21:38;23.45;;;13.45;;
28022;SDS011;67403;50.104;8.758;2024-03-02T08:24:06;29.90;;;14.68;;
28022;SDS011;67403;50.104;8.758;2024-03-02T08:26:33;29.15;;;14.25;;
28022;SDS011;67403;50.104;8.758;2024-03-02T08:29:01;29.67;;;15.45;;
28022;SDS011;67403;50.104;8.758;2024-03-02T08:31:28;30.23;;;14.75;;
28022;SDS011;67403;50.104;8.758;2024-03-02T08:33:56;24.23;;;13.38;;
28022;SDS011;67403;50.104;8.758;2024-03-02T08:36:25;27.58;;;14.30;;
28022;SDS011;67403;50.104;8.758;2024-03-02T08:38:52;28.10;;;14.18;;
28022;SDS011;67403;50.104;8.758;2024-03-02T08:41:20;26.15;;;14.18;;
28022;SDS011;67403;50.104;8.758;2024-03-02T08:43:47;25.17;;;13.00;;
28022;SDS011;67403;50.104;8.758;2024-03-02T08:46:14;26.45;;;13.60;;
28022;SDS011;67403;50.104;8.758;2024-03-02T08:48:41;23.85;;;13.55;;
28022;SDS011;67403;50.104;8.758;2024-03-02T08:51:09;26.23;;;14.38;;
28022;SDS011;67403;50.104;8.758;2024-03-02T08:53:37;22.25;;;12.73;;
28022;SDS011;67403;50.104;8.758;2024-03-02T08:56:05;23.90;;;13.27;;
28022;SDS011;67403;50.104;8.758;2024-03-02T08:58:32;25.02;;;13.85;;
28022;SDS011;67403;50.104;8.758;2024-03-02T09:01:00;23.92;;;12.68;;
28022;SDS011;67403;50.104;8.758;2024-03-02T09:03:27;26.75;;;13.60;;
28022;SDS011;67403;50.104;8.758;2024-03-02T09:05:54;21.40;;;12.50;;
28022;SDS011;67403;50.104;8.758;2024-03-02T09:08:23;25.20;;;13.73;;
28022;SDS011;67403;50.104;8.758;2024-03-02T09:10:51;25.02;;;13.77;;
28022;SDS011;67403;50.104;8.758;2024-03-02T09:13:19;22.02;;;13.13;;
28022;SDS011;67403;50.104;8.758;2024-03-02T09:15:46;19.92;;;12.20;;
28022;SDS011;67403;50.104;8.758;2024-03-02T09:18:13;26.58;;;13.57;;
28022;SDS011;67403;50.104;8.758;2024-03-02T09:20:41;26.05;;;13.60;;
28022;SDS011;67403;50.104;8.758;2024-03-02T09:23:09;21.50;;;12.43;;
28022;SDS011;67403;50.104;8.758;2024-03-02T09:25:36;20.55;;;12.48;;
28022;SDS011;67403;50.104;8.758;2024-03-02T09:28:05;23.15;;;13.82;;
28022;SDS011;67403;50.104;8.758;2024-03-02T09:30:32;20.02;;;11.85;;
28022;SDS011;67403;50.104;8.758;2024-03-02T09:33:00;21.33;;;12.25;;
28022;SDS011;67403;50.104;8.758;2024-03-02T09:35:27;20.42;;;12.55;;
28022;SDS011;67403;50.104;8.758;2024-03-02T09:37:55;23.95;;;13.02;;
28022;SDS011;67403;50.104;8.758;2024-03-02T09:40:22;25.00;;;13.75;;
28022;SDS011;67403;50.104;8.758;2024-03-02T09:42:49;19.70;;;12.07;;
28022;SDS011;67403;50.104;8.758;2024-03-02T09:45:20;22.25;;;12.73;;
28022;SDS011;67403;50.104;8.758;2024-03-02T09:47:52;20.33;;;12.30;;
28022;SDS011;67403;50.104;8.758;2024-03-02T09:50:20;19.83;;;12.25;;
28022;SDS011;67403;50.104;8.758;2024-03-02T09:52:48;19.13;;;11.55;;
28022;SDS011;67403;50.104;8.758;2024-03-02T09:55:16;18.52;;;11.50;;
28022;SDS011;67403;50.104;8.758;2024-03-02T09:57:44;22.02;;;11.93;;
28022;SDS011;67403;50.104;8.758;2024-03-02T10:00:14;21.08;;;11.63;;
28022;SDS011;67403;50.104;8.758;2024-03-02T10:02:43;19.83;;;12.25;;
28022;SDS011;67403;50.104;8.758;2024-03-02T10:05:11;19.70;;;11.55;;
28022;SDS011;67403;50.104;8.758;2024-03-02T10:07:38;21.92;;;11.10;;
28022;SDS011;67403;50.104;8.758;2024-03-02T10:10:12;22.67;;;11.55;;
28022;SDS011;67403;50.104;8.758;2024-03-02T10:12:39;18.83;;;10.82;;
28022;SDS011;67403;50.104;8.758;2024-03-02T10:15:07;18.90;;;11.30;;
28022;SDS011;67403;50.104;8.758;2024-03-02T10:17:35;21.17;;;11.55;;
28022;SDS011;67403;50.104;8.758;2024-03-02T10:22:46;16.95;;;10.45;;
28022;SDS011;67403;50.104;8.758;2024-03-02T10:25:27;22.67;;;13.82;;
28022;SDS011;67403;50.104;8.758;2024-03-02T10:27:56;28.48;;;17.48;;
28022;SDS011;67403;50.104;8.758;2024-03-02T10:30:24;16.95;;;10.82;;
28022;SDS011;67403;50.104;8.758;2024-03-02T10:32:52;19.80;;;11.70;;
28022;SDS011;67403;50.104;8.758;2024-03-02T10:35:20;18.30;;;10.10;;
28022;SDS011;67403;50.104;8.758;2024-03-02T10:37:49;16.42;;;10.40;;
28022;SDS011;67403;50.104;8.758;2024-03-02T10:40:17;18.92;;;11.23;;
28022;SDS011;67403;50.104;8.758;2024-03-02T10:42:45;16.38;;;9.98;;
28022;SDS011;67403;50.104;8.758;2024-03-02T10:45:12;15.30;;;10.27;;
28022;SDS011;67403;50.104;8.758;2024-03-02T10:47:42;14.98;;;10.40;;
28022;SDS011;67403;50.104;8.758;2024-03-02T10:50:09;18.52;;;9.88;;
28022;SDS011;67403;50.104;8.758;2024-03-02T10:52:37;13.60;;;9.65;;
28022;SDS011;67403;50.104;8.758;2024-03-02T10:55:07;14.15;;;9.30;;
28022;SDS011;67403;50.104;8.758;2024-03-02T10:57:38;16.58;;;10.27;;
28022;SDS011;67403;50.104;8.758;2024-03-02T11:00:08;13.98;;;9.88;;
28022;SDS011;67403;50.104;8.758;2024-03-02T11:02:41;12.68;;;8.60;;
28022;SDS011;67403;50.104;8.758;2024-03-02T11:05:09;15.10;;;9.45;;
28022;SDS011;67403;50.104;8.758;2024-03-02T11:07:38;16.30;;;10.23;;
28022;SDS011;67403;50.104;8.758;2024-03-02T11:10:07;13.93;;;9.45;;
28022;SDS011;67403;50.104;8.758;2024-03-02T11:12:36;15.55;;;10.20;;
28022;SDS011;67403;50.104;8.758;2024-03-02T11:15:05;17.83;;;10.55;;
28022;SDS011;67403;50.104;8.758;2024-03-02T11:17:34;14.45;;;10.70;;
28022;SDS011;67403;50.104;8.758;2024-03-02T11:20:02;15.43;;;10.23;;
28022;SDS011;67403;50.104;8.758;2024-03-02T11:22:30;15.85;;;9.60;;
28022;SDS011;67403;50.104;8.758;2024-03-02T11:24:57;16.17;;;11.32;;
28022;SDS011;67403;50.104;8.758;2024-03-02T11:30:14;20.17;;;12.55;;
28022;SDS011;67403;50.104;8.758;2024-03-02T11:33:03;14.68;;;9.48;;
28022;SDS011;67403;50.104;8.758;2024-03-02T11:38:00;14.68;;;10.07;;
28022;SDS011;67403;50.104;8.758;2024-03-02T11:40:28;10.70;;;8.15;;
28022;SDS011;67403;50.104;8.758;2024-03-02T11:42:56;13.45;;;8.77;;
28022;SDS011;67403;50.104;8.758;2024-03-02T11:45:25;11.00;;;7.40;;
28022;SDS011;67403;50.104;8.758;2024-03-02T11:47:53;13.07;;;8.63;;
28022;SDS011;67403;50.104;8.758;2024-03-02T11:50:28;11.27;;;8.43;;
28022;SDS011;67403;50.104;8.758;2024-03-02T11:52:56;13.57;;;8.70;;
28022;SDS011;67403;50.104;8.758;2024-03-02T11:55:23;10.40;;;7.80;;
28022;SDS011;67403;50.104;8.758;2024-03-02T11:57:52;10.07;;;8.40;;
28022;SDS011;67403;50.104;8.758;2024-03-02T12:00:20;16.05;;;11.25;;
28022;SDS011;67403;50.104;8.758;2024-03-02T12:02:58;17.05;;;11.27;;
28022;SDS011;67403;50.104;8.758;2024-03-02T12:05:26;11.27;;;8.63;;
28022;SDS011;67403;50.104;8.758;2024-03-02T12:07:55;10.63;;;7.60;;
28022;SDS011;67403;50.104;8.758;2024-03-02T12:10:23;9.88;;;7.53;;
28022;SDS011;67403;50.104;8.758;2024-03-02T12:12:55;9.52;;;6.85;;
28022;SDS011;67403;50.104;8.758;2024-03-02T12:15:22;8.93;;;7.07;;
28022;SDS011;67403;50.104;8.758;2024-03-02T12:17:53;9.27;;;7.22;;
28022;SDS011;67403;50.104;8.758;2024-03-02T12:20:21;12.18;;;9.35;;
28022;SDS011;67403;50.104;8.758;2024-03-02T12:22:49;7.70;;;6.40;;
28022;SDS011;67403;50.104;8.758;2024-03-02T12:25:17;9.18;;;6.70;;
28022;SDS011;67403;50.104;8.758;2024-03-02T12:27:45;8.48;;;5.63;;
28022;SDS011;67403;50.104;8.758;2024-03-02T12:30:12;7.82;;;5.20;;
28022;SDS011;67403;50.104;8.758;2024-03-02T12:32:40;6.70;;;5.60;;
28022;SDS011;67403;50.104;8.758;2024-03-02T12:35:09;8.30;;;5.95;;
28022;SDS011;67403;50.104;8.758;2024-03-02T12:37:43;7.80;;;5.55;;
28022;SDS011;67403;50.104;8.758;2024-03-02T12:40:11;7.20;;;5.10;;
28022;SDS011;67403;50.104;8.758;2024-03-02T12:42:38;7.65;;;5.57;;
28022;SDS011;67403;50.104;8.758;2024-03-02T12:45:07;7.57;;;4.60;;
28022;SDS011;67403;50.104;8.758;2024-03-02T12:47:34;6.75;;;4.88;;
28022;SDS011;67403;50.104;8.758;2024-03-02T12:50:02;8.85;;;5.10;;
28022;SDS011;67403;50.104;8.758;2024-03-02T12:52:31;6.97;;;4.03;;
28022;SDS011;67403;50.104;8.758;2024-03-02T12:54:59;5.70;;;3.88;;
28022;SDS011;67403;50.104;8.758;2024-03-02T12:57:28;4.10;;;3.70;;
28022;SDS011;67403;50.104;8.758;2024-03-02T12:59:59;4.93;;;3.70;;
28022;SDS011;67403;50.104;8.758;2024-03-02T13:02:30;5.47;;;3.63;;
28022;SDS011;67403;50.104;8.758;2024-03-02T13:04:57;7.38;;;5.88;;
28022;SDS011;67403;50.104;8.758;2024-03-02T13:07:25;16.05;;;10.93;;
28022;SDS011;67403;50.104;8.758;2024-03-02T13:09:54;4.80;;;4.05;;
28022;SDS011;67403;50.104;8.758;2024-03-02T13:12:22;5.28;;;4.47;;
28022;SDS011;67403;50.104;8.758;2024-03-02T13:14:49;6.97;;;4.60;;
28022;SDS011;67403;50.104;8.758;2024-03-02T13:17:17;9.93;;;3.85;;
28022;SDS011;67403;50.104;8.758;2024-03-02T13:19:51;4.97;;;3.97;;
28022;SDS011;67403;50.104;8.758;2024-03-02T13:22:19;6.00;;;4.88;;
28022;SDS011;67403;50.104;8.758;2024-03-02T13:24:46;6.55;;;4.18;;
28022;SDS011;67403;50.104;8.758;2024-03-02T13:27:15;6.20;;;3.67;;
28022;SDS011;67403;50.104;8.758;2024-03-02T13:29:44;7.50;;;5.20;;
28022;SDS011;67403;50.104;8.758;2024-03-02T13:32:12;5.85;;;4.22;;
28022;SDS011;67403;50.104;8.758;2024-03-02T13:34:40;7.88;;;5.80;;
28022;SDS011;67403;50.104;8.758;2024-03-02T13:37:07;8.10;;;4.30;;
28022;SDS011;67403;50.104;8.758;2024-03-02T13:39:35;7.97;;;4.45;;
28022;SDS011;67403;50.104;8.758;2024-03-02T13:42:06;6.65;;;4.10;;
28022;SDS011;67403;50.104;8.758;2024-03-02T13:44:35;5.15;;;4.60;;
28022;SDS011;67403;50.104;8.758;2024-03-02T13:47:03;5.67;;;4.10;;
28022;SDS011;67403;50.104;8.758;2024-03-02T13:49:31;6.88;;;4.32;;
28022;SDS011;67403;50.104;8.758;2024-03-02T13:52:03;5.70;;;3.58;;
28022;SDS011;67403;50.104;8.758;2024-03-02T13:54:39;8.10;;;5.10;;
28022;SDS011;67403;50.104;8.758;2024-03-02T13:57:07;5.80;;;4.50;;
28022;SDS011;67403;50.104;8.758;2024-03-02T13:59:36;12.27;;;8.27;;
28022;SDS011;67403;50.104;8.758;2024-03-02T14:02:04;10.43;;;6.37;;
28022;SDS011;67403;50.104;8.758;2024-03-02T14:04:31;11.80;;;8.07;;
28022;SDS011;67403;50.104;8.758;2024-03-02T14:06:59;9.45;;;7.28;;
28022;SDS011;67403;50.104;8.758;2024-03-02T14:09:27;5.50;;;3.67;;
28022;SDS011;67403;50.104;8.758;2024-03-02T14:11:54;8.00;;;4.50;;
28022;SDS011;67403;50.104;8.758;2024-03-02T14:14:22;7.95;;;4.43;;
28022;SDS011;67403;50.104;8.758;2024-03-02T14:16:50;3.38;;;2.20;;
28022;SDS011;67403;50.104;8.758;2024-03-02T14:19:18;3.72;;;2.22;;
28022;SDS011;67403;50.104;8.758;2024-03-02T14:21:46;5.40;;;2.15;;
28022;SDS011;67403;50.104;8.758;2024-03-02T14:24:14;3.20;;;2.20;;
28022;SDS011;67403;50.104;8.758;2024-03-02T14:26:41;2.75;;;1.90;;
28022;SDS011;67403;50.104;8.758;2024-03-02T14:29:08;2.08;;;1.85;;
28022;SDS011;67403;50.104;8.758;2024-03-02T14:31:36;3.00;;;1.80;;
28022;SDS011;67403;50.104;8.758;2024-03-02T14:34:05;3.13;;;2.13;;
28022;SDS011;67403;50.104;8.758;2024-03-02T14:36:32;3.38;;;1.98;;
28022;SDS011;67403;50.104;8.758;2024-03-02T14:38:59;4.32;;;2.33;;
28022;SDS011;67403;50.104;8.758;2024-03-02T14:41:27;3.58;;;2.00;;